Aeroporto :
LOGIN :

Iscrizione | Disclaimer

   EN    FR    IT 

 










Sommario :    VFR   VFR Marginale   IFR   IFR Intensivo   IFR Molto Intensivo
Visibilità : 
Base nubi : 
>= 8 km
>= 3000ft
5 / 8 km
1000 / 3000 ft
1500m / 5 km
500 / 1000 ft
800 / 1500m
200 / 500 ft
< 800m
< 200 ft
Simboli :   Temporali  Nebbia  Neve Forte  Precipitazioni Forti  Vento > 20 kt
SIGMETs :   Varie  Temporali  Ghiacco  Turbolenza  Onda orograficha  Ceneri Vulcaniche






- Altitudine del aeroporto : 424 ft
- Codice IATA : QGY


LHPR - Györ Per

ULTIMO METAR :
  • 200745Z AUTO 27001KT 0250 R30/0375N FZFG BKN014 M03/M03 Q1043

METARs OBSOLETI :
  • 200715Z AUTO 25003KT 0300 R30/0375N FZFG FEW048 M02/M03 Q1043
  • 200645Z AUTO 26003KT 0400 R30/0550D FG FEW009 SCT057 M01/M01 Q1042
  • 200615Z AUTO 26005KT 4400 BR OVC008 00/00 Q1042
  • 200545Z AUTO 26004KT 6000 OVC008 01/01 Q1042
  • 200515Z AUTO 26004KT 6000 OVC007 01/01 Q1041

TAF AMD TAF LHPR
Valido dal 20 a 07 ore il 20 a 15 ore UTC


200700Z 2007/2015 27005KT 0150 FZFG VV002
TEMPO 2007/2008 0600 FG BKN015
BECMG 2008/2011 8000 NSW SCT015 BKN030



MetMap, La meteo Aeronautica in un colpo d'occhio ! - Copyright ORBIFLY Dicembre 2007 - Disclaimer

ORBIFLY MET'MAP TEAM :

Programmazione e sviluppo : Alexandra Zaïnal
Concezione : Baudouin d'Aumeries
Aiuto per la programmazione : Marc-Olivier Méhu
Supporto tecnico e logistico : Manuel Goepfert
Aiuto per la traduzione : Arnaldo La Scala

Contatto : metmap@orbifly.com




FONTI E CREDITI :

   NOAA